Time;durP1;ratioP1;P1;durP2;ratioP2;P2;SDS_P1;SDS_P2;PMS_P1;PMS_P2;Temp;Humidity;BMP_temperature;BMP_pressure;BME280_temperature;BME280_humidity;BME280_pressure;Samples;Min_cycle;Max_cycle;Signal;HPM_P1;HPM_P2
2022/01/12 00:01:32;;;;;;;16.73;15.00;;;;;;;;;;5010734;28;20052;-71
2022/01/12 00:03:57;;;;;;;17.15;15.75;;;;;;;;;;4999703;28;20045;-71
2022/01/12 00:06:24;;;;;;;16.80;15.32;;;;;;;;;;4999791;28;20094;-71
2022/01/12 00:08:50;;;;;;;17.27;15.75;;;;;;;;;;5030826;28;20040;-71
2022/01/12 00:11:18;;;;;;;16.45;14.90;;;;;;;;;;5040910;28;20033;-72
2022/01/12 00:13:43;;;;;;;17.88;16.17;;;;;;;;;;5009229;28;20040;-72
2022/01/12 00:16:09;;;;;;;17.75;16.02;;;;;;;;;;5032843;28;20033;-70
2022/01/12 00:18:35;;;;;;;17.05;15.45;;;;;;;;;;5038453;28;20037;-71
2022/01/12 00:21:01;;;;;;;16.98;15.45;;;;;;;;;;5030689;28;20037;-71
2022/01/12 00:23:27;;;;;;;17.25;15.50;;;;;;;;;;5029424;28;20107;-70
2022/01/12 00:26:00;;;;;;;17.83;16.08;;;;;;;;;;5037473;28;20032;-72
2022/01/12 00:33:59;;;;;;;17.30;15.80;;;;;;;;;;5013190;28;20079;-71
2022/01/12 00:36:26;;;;;;;17.38;15.90;;;;;;;;;;5009809;28;20595;-71
2022/01/12 00:38:52;;;;;;;16.60;15.00;;;;;;;;;;5013272;28;20172;-72
2022/01/12 00:41:18;;;;;;;17.13;15.63;;;;;;;;;;4996100;28;20128;-71
2022/01/12 00:43:47;;;;;;;19.52;16.25;;;;;;;;;;5012646;28;20037;-71
2022/01/12 00:46:14;;;;;;;17.58;15.82;;;;;;;;;;5012543;28;20040;-71
2022/01/12 00:48:40;;;;;;;17.08;15.60;;;;;;;;;;5016077;28;20065;-71
2022/01/12 00:51:07;;;;;;;16.80;15.40;;;;;;;;;;5030597;28;20402;-71
2022/01/12 00:53:33;;;;;;;16.83;15.38;;;;;;;;;;5010011;28;20461;-70
2022/01/12 00:55:58;;;;;;;17.17;15.55;;;;;;;;;;5033748;28;20144;-71
2022/01/12 00:58:24;;;;;;;17.30;15.70;;;;;;;;;;5017038;28;20077;-72
2022/01/12 01:00:50;;;;;;;17.13;15.43;;;;;;;;;;5015329;28;20484;-71
2022/01/12 01:03:16;;;;;;;16.83;15.32;;;;;;;;;;5026775;28;20037;-71
2022/01/12 01:05:42;;;;;;;17.65;16.02;;;;;;;;;;5033939;28;20099;-72
2022/01/12 01:08:08;;;;;;;18.23;16.52;;;;;;;;;;5008827;28;20037;-71
2022/01/12 01:10:45;;;;;;;17.17;15.57;;;;;;;;;;5017573;28;20033;-72
2022/01/12 01:13:18;;;;;;;16.73;15.10;;;;;;;;;;4996614;28;20040;-71
2022/01/12 01:26:34;;;;;;;16.85;15.40;;;;;;;;;;5027523;28;20449;-72
2022/01/12 01:29:00;;;;;;;16.48;15.07;;;;;;;;;;5016984;28;20129;-71
2022/01/12 01:31:32;;;;;;;17.52;15.93;;;;;;;;;;5011107;28;20033;-71
2022/01/12 01:34:05;;;;;;;18.17;16.58;;;;;;;;;;5006334;28;20038;-72
2022/01/12 01:36:35;;;;;;;18.23;16.58;;;;;;;;;;5027942;28;20033;-71
2022/01/12 01:39:02;;;;;;;18.60;16.77;;;;;;;;;;5027063;28;20032;-71
2022/01/12 01:41:28;;;;;;;19.85;17.45;;;;;;;;;;5027615;28;20037;-71
2022/01/12 01:54:45;;;;;;;18.45;16.58;;;;;;;;;;5010614;28;20106;-71
2022/01/12 01:57:13;;;;;;;18.88;17.00;;;;;;;;;;5008471;28;20353;-70
2022/01/12 01:59:38;;;;;;;18.75;17.20;;;;;;;;;;5010738;28;20029;-71
2022/01/12 02:02:04;;;;;;;17.58;15.85;;;;;;;;;;5004886;28;20052;-71
2022/01/12 02:04:30;;;;;;;17.02;15.60;;;;;;;;;;5008224;28;20038;-71
2022/01/12 02:06:58;;;;;;;19.45;17.40;;;;;;;;;;5012656;28;20460;-70
2022/01/12 02:09:25;;;;;;;18.77;16.95;;;;;;;;;;5028699;28;20409;-70
2022/01/12 02:12:03;;;;;;;20.15;18.25;;;;;;;;;;5010004;28;20043;-70
2022/01/12 02:14:31;;;;;;;18.17;16.48;;;;;;;;;;5006481;28;20062;-71
2022/01/12 02:17:02;;;;;;;16.88;15.52;;;;;;;;;;5011928;28;20045;-70
2022/01/12 02:19:47;;;;;;;20.38;18.42;;;;;;;;;;5034478;28;20045;-71
2022/01/12 02:36:28;;;;;;;17.88;16.17;;;;;;;;;;5000883;28;20518;-71
2022/01/12 02:41:40;;;;;;;18.95;16.98;;;;;;;;;;5032543;28;20051;-71
2022/01/12 02:54:50;;;;;;;20.63;17.17;;;;;;;;;;4994685;28;20477;-71
2022/01/12 02:57:16;;;;;;;22.70;18.02;;;;;;;;;;5018427;23;20054;-70
2022/01/12 03:00:07;;;;;;;22.42;18.90;;;;;;;;;;4981804;28;20214;-70
2022/01/12 03:02:37;;;;;;;19.90;17.80;;;;;;;;;;4985446;28;20038;-70
2022/01/12 03:07:42;;;;;;;20.23;18.23;;;;;;;;;;4996091;28;20038;-70
2022/01/12 03:10:10;;;;;;;20.05;17.95;;;;;;;;;;4999926;28;20033;-70
2022/01/12 03:12:44;;;;;;;17.00;15.45;;;;;;;;;;4991082;28;20045;-70
2022/01/12 03:15:13;;;;;;;19.60;17.60;;;;;;;;;;4980371;28;20042;-70
2022/01/12 03:17:39;;;;;;;17.38;15.93;;;;;;;;;;5009497;28;20048;-70
2022/01/12 03:20:07;;;;;;;18.38;16.35;;;;;;;;;;4981792;28;20099;-70
2022/01/12 03:22:33;;;;;;;18.48;16.60;;;;;;;;;;4997897;28;20453;-70
2022/01/12 03:24:59;;;;;;;18.85;16.92;;;;;;;;;;5000709;28;20511;-70
2022/01/12 03:27:26;;;;;;;19.75;17.63;;;;;;;;;;4989434;28;20696;-70
2022/01/12 03:29:56;;;;;;;19.58;17.48;;;;;;;;;;4994436;28;20420;-70
2022/01/12 03:32:34;;;;;;;19.17;16.70;;;;;;;;;;5002443;28;20566;-70
2022/01/12 03:35:08;;;;;;;19.80;17.80;;;;;;;;;;5006425;28;20120;-70
2022/01/12 03:37:54;;;;;;;20.42;18.30;;;;;;;;;;5006402;28;20042;-70
2022/01/12 03:40:21;;;;;;;20.15;18.15;;;;;;;;;;4994602;28;20038;-70
2022/01/12 03:42:47;;;;;;;19.27;17.27;;;;;;;;;;5001287;28;20073;-70
2022/01/12 03:45:14;;;;;;;19.40;17.40;;;;;;;;;;5001251;28;20034;-70
2022/01/12 03:47:40;;;;;;;23.60;18.38;;;;;;;;;;5007713;28;20034;-70
2022/01/12 03:50:06;;;;;;;20.23;18.13;;;;;;;;;;5003392;28;20908;-70
2022/01/12 03:52:31;;;;;;;22.23;19.45;;;;;;;;;;5004627;28;20386;-70
2022/01/12 03:54:57;;;;;;;21.10;18.70;;;;;;;;;;5006554;28;20030;-70
2022/01/12 03:57:23;;;;;;;20.58;18.50;;;;;;;;;;5002934;28;20065;-70
2022/01/12 03:59:48;;;;;;;21.63;19.27;;;;;;;;;;4990002;28;20042;-71
2022/01/12 04:02:14;;;;;;;20.25;18.20;;;;;;;;;;5002367;28;20041;-70
2022/01/12 04:05:05;;;;;;;22.38;18.50;;;;;;;;;;5003368;28;20037;-70
2022/01/12 04:10:11;;;;;;;20.95;18.42;;;;;;;;;;5005167;28;20068;-69
2022/01/12 04:12:36;;;;;;;23.02;18.15;;;;;;;;;;4995033;28;20641;-69
2022/01/12 04:15:03;;;;;;;20.48;18.20;;;;;;;;;;5002119;28;20516;-70
2022/01/12 04:17:28;;;;;;;20.83;18.73;;;;;;;;;;4997044;28;20432;-69
2022/01/12 04:19:54;;;;;;;24.65;19.83;;;;;;;;;;5001287;28;20088;-70
2022/01/12 04:25:04;;;;;;;19.65;17.67;;;;;;;;;;5021684;28;20041;-69
2022/01/12 04:27:31;;;;;;;18.60;16.77;;;;;;;;;;5006472;28;20287;-69
2022/01/12 04:29:57;;;;;;;25.52;19.45;;;;;;;;;;5003314;28;20033;-70
2022/01/12 04:32:24;;;;;;;20.30;18.25;;;;;;;;;;5007906;28;20096;-69
2022/01/12 04:34:50;;;;;;;22.27;18.85;;;;;;;;;;5002836;28;20038;-70
2022/01/12 04:37:16;;;;;;;19.83;17.70;;;;;;;;;;4986987;28;20054;-69
2022/01/12 04:39:42;;;;;;;22.23;18.23;;;;;;;;;;4994622;28;20033;-69
2022/01/12 04:42:08;;;;;;;18.63;16.90;;;;;;;;;;5015688;28;20037;-69
2022/01/12 04:44:39;;;;;;;17.52;15.95;;;;;;;;;;5015198;28;20287;-69
2022/01/12 04:47:14;;;;;;;19.70;17.85;;;;;;;;;;5001703;28;20570;-69
2022/01/12 04:52:12;;;;;;;19.65;17.63;;;;;;;;;;5006179;28;20106;-70
2022/01/12 04:54:38;;;;;;;21.10;17.92;;;;;;;;;;5007180;28;20040;-69
2022/01/12 04:57:04;;;;;;;21.75;19.23;;;;;;;;;;4993625;28;20042;-69
2022/01/12 04:59:32;;;;;;;19.25;17.35;;;;;;;;;;4997789;28;20056;-69
2022/01/12 05:02:12;;;;;;;20.98;18.80;;;;;;;;;;4987831;28;20129;-69
2022/01/12 05:07:31;;;;;;;20.15;18.15;;;;;;;;;;5003839;28;20053;-69
2022/01/12 05:12:47;;;;;;;17.77;16.05;;;;;;;;;;4988825;28;20049;-69
2022/01/12 05:12:52;;;;;;;20.75;18.67;;;;;;;;;;4988404;28;20124;-69
2022/01/12 05:15:27;;;;;;;21.73;18.98;;;;;;;;;;4989152;28;20369;-70
2022/01/12 05:17:53;;;;;;;22.45;18.15;;;;;;;;;;4999595;28;20514;-70
2022/01/12 05:20:20;;;;;;;20.38;18.20;;;;;;;;;;5000975;28;20045;-69
2022/01/12 05:22:46;;;;;;;20.20;18.13;;;;;;;;;;4987184;28;20052;-70
2022/01/12 05:25:11;;;;;;;17.08;15.50;;;;;;;;;;4985296;28;20030;-70
2022/01/12 05:27:38;;;;;;;20.48;17.92;;;;;;;;;;5006781;28;20038;-69
2022/01/12 05:30:04;;;;;;;17.25;15.68;;;;;;;;;;5008306;28;20034;-69
2022/01/12 05:32:31;;;;;;;18.38;16.65;;;;;;;;;;5010587;28;20563;-70
2022/01/12 05:35:02;;;;;;;24.73;20.40;;;;;;;;;;4994891;28;20451;-69
2022/01/12 05:37:28;;;;;;;20.00;18.13;;;;;;;;;;4988190;28;20030;-69
2022/01/12 05:39:54;;;;;;;22.13;19.38;;;;;;;;;;4993777;28;20049;-70
2022/01/12 05:42:19;;;;;;;27.30;21.30;;;;;;;;;;4991266;28;20116;-70
2022/01/12 05:44:45;;;;;;;27.77;20.30;;;;;;;;;;5004207;28;20048;-70
2022/01/12 05:47:34;;;;;;;24.48;20.58;;;;;;;;;;4992663;28;20034;-70
2022/01/12 05:49:56;;;;;;;20.63;17.67;;;;;;;;;;4996639;28;20053;-70
2022/01/12 05:52:22;;;;;;;20.33;18.25;;;;;;;;;;4999496;28;20030;-70
2022/01/12 05:54:48;;;;;;;21.27;18.60;;;;;;;;;;4999619;28;20037;-69
2022/01/12 05:57:13;;;;;;;22.85;19.52;;;;;;;;;;4982717;28;20101;-69
2022/01/12 05:59:40;;;;;;;26.52;21.27;;;;;;;;;;5003749;28;20116;-69
2022/01/12 06:02:06;;;;;;;30.58;22.13;;;;;;;;;;4993555;28;20063;-69
2022/01/12 06:04:33;;;;;;;30.65;22.90;;;;;;;;;;4986576;28;20056;-70
2022/01/12 06:07:01;;;;;;;20.60;18.52;;;;;;;;;;5002324;28;20034;-69
2022/01/12 06:09:27;;;;;;;24.63;21.33;;;;;;;;;;5006745;28;20072;-70
2022/01/12 06:11:54;;;;;;;32.33;22.60;;;;;;;;;;5002278;28;20040;-70
2022/01/12 06:14:21;;;;;;;29.48;20.13;;;;;;;;;;4982233;28;20037;-70
2022/01/12 06:16:47;;;;;;;33.10;21.33;;;;;;;;;;4988341;28;20041;-70
2022/01/12 06:19:15;;;;;;;29.13;22.65;;;;;;;;;;4989407;28;20042;-70
2022/01/12 06:21:51;;;;;;;25.63;21.08;;;;;;;;;;4985808;28;20092;-70
2022/01/12 06:24:23;;;;;;;25.25;21.80;;;;;;;;;;4998152;28;20068;-69
2022/01/12 06:26:49;;;;;;;27.27;21.50;;;;;;;;;;5002551;28;20069;-70
2022/01/12 06:32:01;;;;;;;25.58;21.08;;;;;;;;;;4986059;28;20089;-70
2022/01/12 06:34:26;;;;;;;28.65;23.30;;;;;;;;;;4992333;28;20157;-69
2022/01/12 06:36:53;;;;;;;29.48;23.27;;;;;;;;;;4995991;28;20077;-70
2022/01/12 06:39:20;;;;;;;27.40;22.50;;;;;;;;;;5003130;28;20061;-70
2022/01/12 06:41:49;;;;;;;32.00;23.15;;;;;;;;;;4982156;28;20710;-70
2022/01/12 06:44:20;;;;;;;37.08;24.42;;;;;;;;;;4998306;28;20080;-70
2022/01/12 06:46:51;;;;;;;28.23;22.27;;;;;;;;;;5006460;28;20138;-70
2022/01/12 06:49:17;;;;;;;32.72;24.48;;;;;;;;;;4989038;28;20391;-69
2022/01/12 06:51:44;;;;;;;24.48;21.55;;;;;;;;;;4982954;28;20060;-70
2022/01/12 06:54:12;;;;;;;56.22;27.92;;;;;;;;;;5006720;28;20034;-70
2022/01/12 06:56:38;;;;;;;39.05;25.15;;;;;;;;;;4975287;28;20393;-70
2022/01/12 06:59:05;;;;;;;42.47;30.45;;;;;;;;;;4995283;28;20100;-70
2022/01/12 07:01:33;;;;;;;26.23;21.02;;;;;;;;;;4995282;28;20075;-69
2022/01/12 07:03:59;;;;;;;19.58;17.67;;;;;;;;;;4999625;28;20089;-69
2022/01/12 07:06:25;;;;;;;35.95;23.25;;;;;;;;;;4985859;28;20033;-69
2022/01/12 07:08:51;;;;;;;34.17;24.05;;;;;;;;;;4984402;28;20405;-68
2022/01/12 07:11:38;;;;;;;37.53;29.52;;;;;;;;;;5009033;28;20049;-69
2022/01/12 07:14:16;;;;;;;24.80;20.60;;;;;;;;;;4991462;28;20034;-66
2022/01/12 07:16:42;;;;;;;26.83;22.38;;;;;;;;;;5000204;28;20044;-67
2022/01/12 07:19:07;;;;;;;16.73;15.38;;;;;;;;;;4986255;28;20095;-66
2022/01/12 07:21:33;;;;;;;30.60;22.80;;;;;;;;;;4997212;28;20034;-66
2022/01/12 07:23:59;;;;;;;28.63;23.48;;;;;;;;;;5002051;28;20029;-66
2022/01/12 07:26:24;;;;;;;26.45;20.88;;;;;;;;;;4998145;28;20219;-66
2022/01/12 07:28:51;;;;;;;25.58;21.05;;;;;;;;;;5011708;28;20125;-67
2022/01/12 07:31:17;;;;;;;27.13;21.70;;;;;;;;;;5011586;28;20046;-65
2022/01/12 07:33:42;;;;;;;26.27;21.98;;;;;;;;;;5005630;28;20025;-66
2022/01/12 07:36:08;;;;;;;21.35;19.05;;;;;;;;;;5005497;28;20056;-65
2022/01/12 07:38:34;;;;;;;31.40;20.77;;;;;;;;;;5012431;28;20132;-68
2022/01/12 07:40:59;;;;;;;24.45;20.55;;;;;;;;;;5011625;28;20120;-67
2022/01/12 07:43:25;;;;;;;23.77;21.08;;;;;;;;;;5006360;28;20088;-66
2022/01/12 07:45:51;;;;;;;37.17;27.98;;;;;;;;;;5007183;28;20041;-66
2022/01/12 07:48:17;;;;;;;24.83;21.13;;;;;;;;;;5007245;28;20033;-66
2022/01/12 07:50:44;;;;;;;25.23;20.05;;;;;;;;;;5005564;28;20121;-67
2022/01/12 07:53:11;;;;;;;17.00;15.38;;;;;;;;;;5006418;28;20504;-66
2022/01/12 07:55:37;;;;;;;29.25;24.05;;;;;;;;;;5007617;28;20168;-66
2022/01/12 07:58:03;;;;;;;19.38;17.45;;;;;;;;;;5011442;28;20026;-67
2022/01/12 08:00:29;;;;;;;34.45;25.20;;;;;;;;;;5003730;28;21356;-66
2022/01/12 08:02:54;;;;;;;32.95;26.60;;;;;;;;;;4989357;28;20080;-66
2022/01/12 08:05:20;;;;;;;35.38;28.73;;;;;;;;;;5010643;28;20076;-66
2022/01/12 08:07:47;;;;;;;28.90;22.83;;;;;;;;;;5009866;28;20046;-65
2022/01/12 08:10:14;;;;;;;27.42;23.00;;;;;;;;;;5008023;28;20117;-66
2022/01/12 08:12:40;;;;;;;29.92;22.35;;;;;;;;;;5002712;28;20038;-66
2022/01/12 08:15:08;;;;;;;25.02;20.88;;;;;;;;;;5010571;28;20033;-67
2022/01/12 08:17:35;;;;;;;24.55;19.70;;;;;;;;;;5010629;28;20034;-67
2022/01/12 08:20:03;;;;;;;24.20;20.27;;;;;;;;;;5009642;28;20034;-66
2022/01/12 08:22:29;;;;;;;24.50;21.25;;;;;;;;;;5005052;28;20041;-66
2022/01/12 08:24:55;;;;;;;24.05;21.52;;;;;;;;;;5011257;28;20406;-66
2022/01/12 08:27:21;;;;;;;24.48;20.95;;;;;;;;;;5010831;28;20042;-66
2022/01/12 08:29:49;;;;;;;24.17;20.33;;;;;;;;;;5001296;28;20460;-65
2022/01/12 08:32:15;;;;;;;23.08;20.67;;;;;;;;;;5008768;28;20124;-66
2022/01/12 08:34:40;;;;;;;22.02;19.10;;;;;;;;;;5007226;28;20112;-65
2022/01/12 08:37:06;;;;;;;25.60;20.27;;;;;;;;;;5005200;28;20053;-69
2022/01/12 08:39:31;;;;;;;24.08;21.48;;;;;;;;;;5011062;28;20034;-67
2022/01/12 08:41:57;;;;;;;22.48;20.25;;;;;;;;;;5011164;28;20042;-66
2022/01/12 08:44:23;;;;;;;23.80;21.08;;;;;;;;;;5010687;28;20038;-66
2022/01/12 08:46:48;;;;;;;23.42;21.17;;;;;;;;;;5005672;28;20034;-66
2022/01/12 08:49:14;;;;;;;23.25;20.90;;;;;;;;;;5001295;28;20320;-67
2022/01/12 08:51:40;;;;;;;22.63;20.50;;;;;;;;;;4988541;28;20033;-66
2022/01/12 08:54:05;;;;;;;24.30;21.88;;;;;;;;;;5001584;28;20481;-67
2022/01/12 08:56:33;;;;;;;22.77;20.40;;;;;;;;;;5015327;23;20025;31
2022/01/12 08:58:58;;;;;;;24.20;21.73;;;;;;;;;;4972153;28;20078;-67
2022/01/12 09:01:24;;;;;;;23.00;20.55;;;;;;;;;;4993395;28;20125;-67
2022/01/12 09:03:50;;;;;;;22.90;20.50;;;;;;;;;;4983656;28;20099;-66
2022/01/12 09:06:16;;;;;;;22.70;20.40;;;;;;;;;;4991062;28;20504;-66
2022/01/12 09:08:44;;;;;;;22.75;20.40;;;;;;;;;;4991606;28;20042;-67
2022/01/12 09:11:10;;;;;;;21.20;19.23;;;;;;;;;;4988241;28;20117;-69
2022/01/12 09:13:36;;;;;;;21.45;19.30;;;;;;;;;;4986134;28;20412;-66
2022/01/12 09:16:06;;;;;;;22.88;20.58;;;;;;;;;;4982449;28;20030;-67
2022/01/12 09:18:36;;;;;;;23.15;20.88;;;;;;;;;;4977470;28;20533;-67
2022/01/12 09:21:03;;;;;;;23.30;20.83;;;;;;;;;;4979337;28;20041;-67
2022/01/12 09:23:28;;;;;;;23.67;20.73;;;;;;;;;;4979836;28;20034;-68
2022/01/12 09:25:54;;;;;;;23.67;21.27;;;;;;;;;;4985357;28;20527;-68
2022/01/12 09:28:20;;;;;;;24.00;21.70;;;;;;;;;;4974835;28;20121;-67
2022/01/12 09:30:45;;;;;;;23.58;21.27;;;;;;;;;;4983598;28;20042;-68
2022/01/12 09:33:11;;;;;;;23.38;21.02;;;;;;;;;;4989099;28;20363;-68
2022/01/12 09:35:37;;;;;;;24.10;21.90;;;;;;;;;;4989700;28;20092;-68
2022/01/12 09:38:03;;;;;;;22.55;20.25;;;;;;;;;;4973892;28;20034;-71
2022/01/12 09:40:28;;;;;;;23.23;21.02;;;;;;;;;;4985653;28;20038;-67
2022/01/12 09:42:56;;;;;;;24.70;22.35;;;;;;;;;;4989375;28;20097;-66
2022/01/12 09:45:26;;;;;;;23.33;21.02;;;;;;;;;;4978394;28;20061;-67
2022/01/12 09:47:51;;;;;;;;;;;;;;;;;;4983193;28;20046;-67
2022/01/12 09:50:21;;;;;;;21.00;18.98;;;;;;;;;;4982639;28;19980;-67
2022/01/12 09:52:46;;;;;;;19.67;18.05;;;;;;;;;;4980807;28;20046;-67
2022/01/12 09:55:12;;;;;;;21.25;19.13;;;;;;;;;;4986840;28;20034;-67
2022/01/12 09:57:38;;;;;;;20.95;18.92;;;;;;;;;;4967204;28;20486;-68
2022/01/12 10:00:06;;;;;;;22.35;20.35;;;;;;;;;;4985622;28;20026;-68
2022/01/12 10:02:41;;;;;;;21.60;19.48;;;;;;;;;;4984477;28;20128;-68
2022/01/12 10:05:09;;;;;;;25.90;21.00;;;;;;;;;;4989397;28;20030;-68
2022/01/12 10:07:35;;;;;;;22.77;20.55;;;;;;;;;;4967248;28;20367;-68
2022/01/12 10:10:07;;;;;;;23.15;20.75;;;;;;;;;;4984934;28;20042;-68
2022/01/12 10:12:34;;;;;;;22.92;19.85;;;;;;;;;;4982721;28;20042;-68
2022/01/12 10:15:06;;;;;;;21.52;19.17;;;;;;;;;;4981622;28;20034;-67
2022/01/12 10:17:32;;;;;;;20.17;18.17;;;;;;;;;;4983541;28;20045;-68
2022/01/12 10:20:11;;;;;;;21.38;19.23;;;;;;;;;;4988967;28;20038;-68
2022/01/12 10:22:38;;;;;;;;;;;;;;;;;;4978576;28;20040;-68
2022/01/12 10:25:19;;;;;;;22.08;19.88;;;;;;;;;;4984944;28;19914;-67
2022/01/12 10:27:46;;;;;;;22.38;19.90;;;;;;;;;;4991761;28;20045;-67
2022/01/12 10:30:28;;;;;;;22.10;20.02;;;;;;;;;;4986490;28;20034;-67
2022/01/12 10:33:04;;;;;;;25.92;22.75;;;;;;;;;;4985118;28;20290;-67
2022/01/12 10:35:32;;;;;;;25.02;22.52;;;;;;;;;;4976933;28;20046;-68
2022/01/12 10:38:16;;;;;;;23.77;20.88;;;;;;;;;;4982167;28;20120;-67
2022/01/12 10:40:56;;;;;;;20.90;18.77;;;;;;;;;;4979476;28;20133;-68
2022/01/12 10:43:29;;;;;;;22.30;20.05;;;;;;;;;;4985815;28;20441;-68
2022/01/12 10:45:54;;;;;;;22.40;19.98;;;;;;;;;;4985087;28;20446;-68
2022/01/12 10:48:21;;;;;;;22.80;20.50;;;;;;;;;;4981310;28;20500;-68
2022/01/12 10:50:55;;;;;;;30.45;25.77;;;;;;;;;;4963533;28;20494;-67
2022/01/12 10:53:33;;;;;;;23.27;20.85;;;;;;;;;;4964332;28;20397;-67
2022/01/12 10:56:09;;;;;;;21.30;19.27;;;;;;;;;;4979534;28;20030;-68
2022/01/12 10:58:39;;;;;;;22.25;20.20;;;;;;;;;;4983918;28;20041;-68
2022/01/12 11:01:04;;;;;;;22.77;20.50;;;;;;;;;;4988792;28;20137;-68
2022/01/12 11:03:31;;;;;;;20.67;18.90;;;;;;;;;;4986783;28;20449;-69
2022/01/12 11:05:57;;;;;;;20.27;18.40;;;;;;;;;;4982676;28;20100;-68
2022/01/12 11:08:24;;;;;;;22.15;20.00;;;;;;;;;;4988065;28;20050;-68
2022/01/12 11:10:51;;;;;;;23.15;21.05;;;;;;;;;;4981234;28;20042;-68
2022/01/12 11:13:17;;;;;;;23.10;21.05;;;;;;;;;;4988285;28;20090;-68
2022/01/12 11:15:43;;;;;;;21.17;19.13;;;;;;;;;;4984151;28;20498;-67
2022/01/12 11:18:10;;;;;;;22.92;20.75;;;;;;;;;;4975966;28;20038;-68
2022/01/12 11:20:39;;;;;;;23.20;20.80;;;;;;;;;;4982169;28;20046;-68
2022/01/12 11:23:09;;;;;;;21.48;19.55;;;;;;;;;;4983811;28;20046;-68
2022/01/12 11:25:36;;;;;;;21.17;19.17;;;;;;;;;;5004983;28;20093;-68
2022/01/12 11:28:16;;;;;;;20.75;18.60;;;;;;;;;;5007865;28;20037;-68
2022/01/12 11:30:50;;;;;;;21.15;19.15;;;;;;;;;;5001295;28;20033;-69
2022/01/12 11:33:17;;;;;;;21.80;19.80;;;;;;;;;;5002350;28;20084;-68
2022/01/12 11:35:53;;;;;;;21.23;19.17;;;;;;;;;;4997686;28;20045;-68
2022/01/12 11:38:24;;;;;;;22.92;20.73;;;;;;;;;;5005965;28;20038;-68
2022/01/12 11:40:54;;;;;;;22.58;20.40;;;;;;;;;;5001068;28;20038;-67
2022/01/12 11:43:26;;;;;;;25.30;20.15;;;;;;;;;;5011697;28;20472;-68
2022/01/12 11:46:11;;;;;;;22.35;20.25;;;;;;;;;;5002956;28;20526;-68
2022/01/12 11:48:46;;;;;;;21.52;19.63;;;;;;;;;;5005378;28;20046;-69
2022/01/12 11:51:14;;;;;;;20.92;19.02;;;;;;;;;;5000546;28;20046;-68
2022/01/12 11:54:20;;;;;;;23.27;20.45;;;;;;;;;;5002952;28;20033;-68
2022/01/12 11:56:59;;;;;;;20.35;18.40;;;;;;;;;;5002613;28;20045;-67
2022/01/12 11:59:27;;;;;;;;;;;;;;;;;;5006973;28;20045;-68
2022/01/12 12:02:07;;;;;;;19.90;17.92;;;;;;;;;;4998068;28;19963;-67
2022/01/12 12:04:33;;;;;;;27.42;24.48;;;;;;;;;;5006725;28;20029;-66
2022/01/12 12:07:07;;;;;;;20.52;18.67;;;;;;;;;;5002992;28;20453;-66
2022/01/12 12:09:53;;;;;;;21.23;19.15;;;;;;;;;;4992547;28;20040;-66
2022/01/12 12:12:23;;;;;;;20.00;18.23;;;;;;;;;;5004891;28;20700;-68
2022/01/12 12:14:53;;;;;;;20.77;19.00;;;;;;;;;;5000866;28;20066;-69
2022/01/12 12:17:20;;;;;;;21.08;19.20;;;;;;;;;;4993350;28;20084;-68
2022/01/12 12:19:47;;;;;;;20.67;18.70;;;;;;;;;;5008476;28;20078;-68
2022/01/12 12:22:15;;;;;;;20.83;18.92;;;;;;;;;;4999449;28;20034;-68
2022/01/12 12:24:42;;;;;;;21.95;19.90;;;;;;;;;;4998224;28;20108;-66
2022/01/12 12:27:10;;;;;;;22.67;20.10;;;;;;;;;;5005135;28;20030;-69
2022/01/12 12:29:36;;;;;;;20.95;18.95;;;;;;;;;;5008352;28;20485;-66
2022/01/12 12:32:03;;;;;;;19.17;17.20;;;;;;;;;;4999918;28;20092;-66
2022/01/12 12:34:29;;;;;;;23.00;20.73;;;;;;;;;;5004893;28;20462;-68
2022/01/12 12:37:04;;;;;;;21.05;19.05;;;;;;;;;;5000018;28;20129;-67
2022/01/12 12:39:33;;;;;;;21.10;19.05;;;;;;;;;;5009516;28;20129;-67
2022/01/12 12:42:00;;;;;;;22.10;19.90;;;;;;;;;;5007758;28;20442;-66
2022/01/12 12:44:30;;;;;;;22.35;20.40;;;;;;;;;;5000888;28;20117;-66
2022/01/12 12:47:15;;;;;;;;;;;;;;;;;;5005670;28;20489;-65
2022/01/12 12:49:52;;;;;;;21.10;18.90;;;;;;;;;;5005936;28;20017;-65
2022/01/12 12:52:29;;;;;;;23.02;20.83;;;;;;;;;;5002084;28;20034;-69
2022/01/12 12:55:02;;;;;;;22.88;20.48;;;;;;;;;;5002837;28;20092;-66
2022/01/12 12:57:28;;;;;;;21.10;19.10;;;;;;;;;;5001075;28;20049;-66
2022/01/12 13:00:24;;;;;;;20.63;18.80;;;;;;;;;;5001196;28;20132;-65
2022/01/12 13:02:55;;;;;;;22.30;20.30;;;;;;;;;;5007711;28;20076;-66
2022/01/12 13:05:23;;;;;;;20.02;18.30;;;;;;;;;;5005763;28;20060;-66
2022/01/12 13:07:50;;;;;;;19.98;18.17;;;;;;;;;;5006780;28;20036;-66
2022/01/12 13:10:24;;;;;;;23.73;21.42;;;;;;;;;;5009009;28;20088;-66
2022/01/12 13:12:56;;;;;;;19.77;17.88;;;;;;;;;;5005343;28;20059;-66
2022/01/12 13:15:30;;;;;;;21.90;19.65;;;;;;;;;;5003732;28;20038;-66
2022/01/12 13:18:06;;;;;;;21.17;19.02;;;;;;;;;;5002703;28;20052;-66
2022/01/12 13:23:22;;;;;;;20.52;18.58;;;;;;;;;;5000492;28;20547;-66
2022/01/12 13:25:56;;;;;;;21.95;19.80;;;;;;;;;;5008583;28;20038;-66
2022/01/12 13:28:23;;;;;;;23.75;21.35;;;;;;;;;;5007327;28;20116;-66
2022/01/12 13:31:03;;;;;;;21.70;19.48;;;;;;;;;;5001618;28;20044;-66
2022/01/12 13:33:35;;;;;;;20.67;18.60;;;;;;;;;;4999220;28;20042;-66
2022/01/12 13:36:15;;;;;;;22.27;20.17;;;;;;;;;;5007453;28;20037;-66
2022/01/12 13:38:42;;;;;;;20.60;17.20;;;;;;;;;;5003486;28;20080;-66
2022/01/12 13:41:15;;;;;;;21.90;19.75;;;;;;;;;;4996383;28;20110;-66
2022/01/12 13:43:44;;;;;;;22.35;20.13;;;;;;;;;;5007933;28;20109;-66
2022/01/12 13:46:18;;;;;;;;;;;;;;;;;;5007078;28;20048;-66
2022/01/12 13:49:38;;;;;;;23.15;20.73;;;;;;;;;;5003639;28;20032;-66
2022/01/12 13:51:43;;;;;;;23.73;21.25;;;;;;;;;;4989650;28;20417;-66
2022/01/12 13:54:14;;;;;;;22.23;19.95;;;;;;;;;;5002937;28;20081;-67
2022/01/12 13:56:43;;;;;;;21.50;19.20;;;;;;;;;;4997271;28;20289;-66
2022/01/12 13:59:10;;;;;;;23.08;20.77;;;;;;;;;;4997271;28;20099;-66
2022/01/12 14:01:38;;;;;;;22.02;19.58;;;;;;;;;;4999502;28;20531;-66
2022/01/12 14:04:15;;;;;;;23.00;20.17;;;;;;;;;;5006168;28;20546;-66
2022/01/12 14:06:45;;;;;;;21.52;19.33;;;;;;;;;;5006449;28;20347;-67
2022/01/12 14:11:49;;;;;;;23.05;20.75;;;;;;;;;;4999647;28;20667;-67
2022/01/12 14:14:16;;;;;;;21.83;19.50;;;;;;;;;;4992047;28;20084;-66
2022/01/12 14:16:42;;;;;;;19.33;17.52;;;;;;;;;;4998648;28;20049;-66
2022/01/12 14:19:08;;;;;;;19.30;17.60;;;;;;;;;;5003935;28;20042;-66
2022/01/12 14:21:34;;;;;;;20.30;18.40;;;;;;;;;;4972493;28;20033;-66
2022/01/12 14:24:00;;;;;;;20.45;18.35;;;;;;;;;;5000309;28;20389;-66
2022/01/12 14:26:28;;;;;;;20.60;18.63;;;;;;;;;;4999351;28;20034;-65
2022/01/12 14:28:55;;;;;;;20.90;18.80;;;;;;;;;;5001737;28;20485;-67
2022/01/12 14:31:21;;;;;;;21.13;18.60;;;;;;;;;;4987058;28;20037;-67
2022/01/12 14:33:47;;;;;;;20.17;18.17;;;;;;;;;;5001310;28;20073;-66
2022/01/12 14:36:15;;;;;;;20.15;18.10;;;;;;;;;;5001365;28;20159;-66
2022/01/12 14:38:41;;;;;;;20.38;18.48;;;;;;;;;;5004039;28;20041;-66
2022/01/12 14:41:06;;;;;;;19.38;17.55;;;;;;;;;;5004137;28;20063;-66
2022/01/12 14:43:32;;;;;;;20.63;18.55;;;;;;;;;;4995472;28;20038;-66
2022/01/12 14:45:57;;;;;;;27.33;21.75;;;;;;;;;;5002195;28;20127;-66
2022/01/12 14:48:23;;;;;;;19.83;17.85;;;;;;;;;;5002548;28;20484;-66
2022/01/12 14:50:53;;;;;;;22.67;19.67;;;;;;;;;;4998999;28;20474;-66
2022/01/12 14:53:21;;;;;;;20.02;17.92;;;;;;;;;;4998703;28;20041;-66
2022/01/12 14:55:53;;;;;;;21.98;18.30;;;;;;;;;;5002107;28;20076;-66
2022/01/12 14:58:19;;;;;;;20.25;18.15;;;;;;;;;;5006345;28;20049;-66
2022/01/12 15:00:45;;;;;;;20.00;18.02;;;;;;;;;;5003093;28;20104;-66
2022/01/12 15:03:11;;;;;;;20.77;18.75;;;;;;;;;;5001390;28;20076;-66
2022/01/12 15:05:39;;;;;;;21.60;19.20;;;;;;;;;;4991377;28;20156;-66
2022/01/12 15:08:05;;;;;;;20.08;17.92;;;;;;;;;;4997970;28;20056;-65
2022/01/12 15:10:32;;;;;;;19.15;17.25;;;;;;;;;;4995293;28;20416;-67
2022/01/12 15:13:16;;;;;;;19.90;17.90;;;;;;;;;;5002880;28;20061;-67
2022/01/12 15:15:44;;;;;;;18.98;16.98;;;;;;;;;;4996554;28;20031;-66
2022/01/12 15:18:11;;;;;;;20.75;18.55;;;;;;;;;;5004483;28;20117;-66
2022/01/12 15:20:36;;;;;;;23.90;18.90;;;;;;;;;;5003031;28;20049;-67
2022/01/12 15:23:02;;;;;;;20.35;18.40;;;;;;;;;;4999463;28;20038;-67
2022/01/12 15:25:28;;;;;;;20.83;18.27;;;;;;;;;;5005283;28;20038;-66
2022/01/12 15:27:54;;;;;;;20.73;18.10;;;;;;;;;;5005162;28;20045;-67
2022/01/12 15:30:22;;;;;;;20.60;18.45;;;;;;;;;;5006444;28;20032;-66
2022/01/12 15:32:49;;;;;;;20.35;17.95;;;;;;;;;;4996337;28;20136;-66
2022/01/12 15:35:16;;;;;;;20.35;18.23;;;;;;;;;;5006606;28;20409;-66
2022/01/12 15:37:43;;;;;;;20.80;18.55;;;;;;;;;;4997233;28;20038;-66
2022/01/12 15:40:09;;;;;;;21.73;19.45;;;;;;;;;;5004879;28;20485;-67
2022/01/12 15:42:35;;;;;;;23.35;18.92;;;;;;;;;;5000752;28;20030;-66
2022/01/12 15:45:04;;;;;;;20.63;18.42;;;;;;;;;;4986110;28;20030;-66